Time;durP1;ratioP1;P1;durP2;ratioP2;P2;SDS_P1;SDS_P2;PMS_P1;PMS_P2;Temp;Humidity;BMP_temperature;BMP_pressure;BME280_temperature;BME280_humidity;BME280_pressure;Samples;Min_cycle;Max_cycle;Signal;HPM_P1;HPM_P2
2021/12/09 00:01:49;;;;;;;5.87;4.30;;;5.80;99.90;;;;;;5024301;28;20216;-78
2021/12/09 00:04:29;;;;;;;7.07;3.50;;;5.90;99.90;;;;;;5046607;28;20224;-78
2021/12/09 00:06:59;;;;;;;8.90;3.87;;;5.70;99.90;;;;;;5038527;28;20236;-78
2021/12/09 00:09:26;;;;;;;7.20;4.30;;;5.70;99.90;;;;;;5027181;28;20203;-79
2021/12/09 00:11:54;;;;;;;6.93;3.83;;;5.70;99.90;;;;;;5023048;28;20202;-78
2021/12/09 00:14:23;;;;;;;7.03;3.70;;;5.70;99.90;;;;;;5027038;28;20205;-79
2021/12/09 00:16:54;;;;;;;5.63;3.07;;;5.40;99.90;;;;;;5047280;28;20574;-79
2021/12/09 00:19:21;;;;;;;8.30;3.90;;;5.50;99.90;;;;;;5048288;28;20201;-79
2021/12/09 00:21:49;;;;;;;7.07;4.50;;;5.50;99.90;;;;;;5032018;28;20212;-79
2021/12/09 00:24:19;;;;;;;6.93;4.23;;;5.60;99.90;;;;;;5044930;28;20695;-78
2021/12/09 00:26:47;;;;;;;7.57;4.00;;;5.40;99.90;;;;;;5030050;28;20240;-78
2021/12/09 00:29:16;;;;;;;6.30;3.63;;;5.30;99.90;;;;;;5044625;28;20212;-78
2021/12/09 00:31:44;;;;;;;5.67;3.80;;;5.40;99.90;;;;;;5031923;28;20287;-79
2021/12/09 00:34:12;;;;;;;6.93;3.70;;;5.40;99.90;;;;;;5027922;28;20201;-79
2021/12/09 00:36:43;;;;;;;7.33;3.70;;;5.40;99.90;;;;;;5024628;28;20226;-79
2021/12/09 00:39:12;;;;;;;8.87;3.97;;;5.40;99.90;;;;;;5024585;28;20207;-79
2021/12/09 00:41:40;;;;;;;6.97;3.40;;;5.40;99.90;;;;;;5031439;28;20206;-79
2021/12/09 00:44:09;;;;;;;6.80;3.60;;;5.30;99.90;;;;;;5048167;28;20207;-79
2021/12/09 00:46:38;;;;;;;6.03;3.50;;;5.30;99.90;;;;;;5025674;28;20221;-78
2021/12/09 00:49:06;;;;;;;7.87;3.97;;;5.40;99.90;;;;;;5039349;28;20232;-78
2021/12/09 00:51:38;;;;;;;6.40;3.80;;;5.40;99.90;;;;;;5029809;28;20565;-78
2021/12/09 00:54:05;;;;;;;7.80;4.10;;;5.40;99.90;;;;;;5030552;28;20597;-78
2021/12/09 00:56:33;;;;;;;8.63;4.10;;;5.40;99.90;;;;;;5029987;28;20202;-78
2021/12/09 00:59:00;;;;;;;9.10;4.23;;;5.30;99.90;;;;;;5026432;28;20209;-78
2021/12/09 01:01:28;;;;;;;7.03;3.83;;;5.40;99.90;;;;;;5043253;28;20207;-78
2021/12/09 01:03:55;;;;;;;6.83;3.70;;;5.40;99.90;;;;;;5027235;28;20197;-78
2021/12/09 01:06:23;;;;;;;8.63;3.77;;;5.30;99.90;;;;;;5020350;28;20683;-78
2021/12/09 01:08:51;;;;;;;10.13;4.13;;;5.30;99.90;;;;;;5028910;28;20213;-78
2021/12/09 01:11:19;;;;;;;10.83;4.00;;;5.30;99.90;;;;;;5023475;28;20709;-78
2021/12/09 01:13:46;;;;;;;8.47;3.50;;;5.30;99.90;;;;;;5030441;28;20217;-78
2021/12/09 01:16:14;;;;;;;6.47;3.57;;;5.40;99.90;;;;;;5029480;28;20569;-78
2021/12/09 01:18:42;;;;;;;5.50;3.53;;;5.20;99.90;;;;;;5030675;28;20201;-78
2021/12/09 01:21:12;;;;;;;8.40;3.93;;;5.20;99.90;;;;;;5027470;28;20217;-78
2021/12/09 01:23:41;;;;;;;7.47;4.00;;;5.10;99.90;;;;;;5027643;28;20207;-78
2021/12/09 01:26:10;;;;;;;6.37;3.93;;;5.10;99.90;;;;;;5035676;28;20215;-78
2021/12/09 01:28:45;;;;;;;8.50;3.90;;;5.10;99.90;;;;;;5028926;28;20218;-78
2021/12/09 01:31:21;;;;;;;5.70;3.10;;;5.10;99.90;;;;;;5027305;28;20213;-78
2021/12/09 01:33:50;;;;;;;6.77;3.67;;;5.10;99.90;;;;;;5030112;28;20225;-78
2021/12/09 01:36:21;;;;;;;6.10;3.60;;;5.20;99.90;;;;;;5028200;28;20216;-78
2021/12/09 01:38:48;;;;;;;6.37;3.70;;;5.30;99.90;;;;;;5029924;28;20196;-78
2021/12/09 01:41:18;;;;;;;9.17;3.43;;;5.30;99.90;;;;;;5030517;28;20671;-78
2021/12/09 01:43:46;;;;;;;6.27;3.70;;;5.30;99.90;;;;;;5023435;28;20197;-77
2021/12/09 01:46:16;;;;;;;4.97;3.57;;;5.30;99.90;;;;;;5026085;28;20200;-77
2021/12/09 01:48:46;;;;;;;7.27;3.50;;;5.20;99.90;;;;;;5022739;28;20206;-77
2021/12/09 01:51:14;;;;;;;5.50;3.60;;;5.30;99.90;;;;;;5015605;28;20193;-77
2021/12/09 01:53:42;;;;;;;4.77;3.33;;;5.10;99.90;;;;;;5028355;28;20606;-77
2021/12/09 01:56:12;;;;;;;7.43;3.63;;;5.10;99.90;;;;;;5023553;28;20205;-77
2021/12/09 01:58:41;;;;;;;7.00;3.87;;;5.20;99.90;;;;;;5029283;28;20235;-77
2021/12/09 02:01:09;;;;;;;7.73;3.93;;;5.10;99.90;;;;;;5025293;28;20207;-77
2021/12/09 02:03:36;;;;;;;6.03;4.07;;;5.00;99.90;;;;;;5025425;28;20193;-78
2021/12/09 02:06:04;;;;;;;5.53;3.80;;;5.00;99.90;;;;;;5030132;28;20211;-77
2021/12/09 02:08:31;;;;;;;7.80;3.80;;;4.90;99.90;;;;;;5023845;28;20235;-78
2021/12/09 02:10:59;;;;;;;9.30;4.27;;;5.00;99.90;;;;;;5031527;28;20204;-78
2021/12/09 02:13:27;;;;;;;8.37;4.33;;;4.80;99.90;;;;;;5032073;28;20219;-78
2021/12/09 02:15:56;;;;;;;6.63;3.57;;;4.80;99.90;;;;;;5048282;28;20208;-78
2021/12/09 02:18:25;;;;;;;6.43;3.67;;;4.80;99.90;;;;;;5031991;28;20225;-78
2021/12/09 02:21:10;;;;;;;5.47;3.80;;;4.80;99.90;;;;;;5020164;28;20214;-78
2021/12/09 02:23:40;;;;;;;10.97;4.53;;;4.80;99.90;;;;;;5045757;28;20199;-78
2021/12/09 02:26:08;;;;;;;7.10;4.30;;;4.80;99.90;;;;;;5030376;28;20667;-78
2021/12/09 02:28:35;;;;;;;9.63;4.57;;;4.80;99.90;;;;;;5015821;28;20588;-78
2021/12/09 02:31:03;;;;;;;8.40;4.30;;;4.80;99.90;;;;;;5030235;28;20207;-78
2021/12/09 02:33:31;;;;;;;9.53;5.00;;;4.70;99.90;;;;;;5030705;28;20580;-78
2021/12/09 02:35:58;;;;;;;6.00;3.40;;;4.70;99.90;;;;;;5030813;28;20203;-78
2021/12/09 02:38:27;;;;;;;7.97;4.10;;;4.70;99.90;;;;;;5032135;28;20220;-78
2021/12/09 02:40:56;;;;;;;9.63;4.10;;;4.60;99.90;;;;;;5028234;28;20188;-78
2021/12/09 02:43:26;;;;;;;4.83;3.80;;;4.60;99.90;;;;;;5025005;28;20191;-79
2021/12/09 02:45:53;;;;;;;9.50;3.97;;;4.60;99.90;;;;;;5049264;28;20199;-78
2021/12/09 02:48:22;;;;;;;6.90;3.47;;;4.60;99.90;;;;;;5026874;28;20222;-78
2021/12/09 02:50:51;;;;;;;5.50;3.90;;;4.60;99.90;;;;;;5030051;28;20223;-78
2021/12/09 02:53:20;;;;;;;7.77;3.93;;;4.60;99.90;;;;;;5025779;28;20211;-78
2021/12/09 02:55:49;;;;;;;8.53;4.10;;;4.60;99.90;;;;;;5025719;28;20219;-78
2021/12/09 02:58:16;;;;;;;9.17;4.50;;;4.60;99.90;;;;;;5025543;28;20228;-78
2021/12/09 03:01:25;;;;;;;8.47;4.30;;;4.60;99.90;;;;;;5018862;28;20190;-78
2021/12/09 03:03:58;;;;;;;8.90;4.27;;;4.60;99.90;;;;;;5025398;28;20661;-78
2021/12/09 03:06:31;;;;;;;8.17;3.80;;;4.70;99.90;;;;;;5029177;28;20202;-78
2021/12/09 03:09:02;;;;;;;7.80;4.23;;;4.60;99.90;;;;;;5029226;28;20652;-78
2021/12/09 03:11:32;;;;;;;7.10;4.10;;;4.60;99.90;;;;;;5017282;28;20695;-77
2021/12/09 03:14:00;;;;;;;9.13;4.17;;;4.50;99.90;;;;;;5039388;28;20200;-78
2021/12/09 03:16:27;;;;;;;6.80;3.83;;;4.60;99.90;;;;;;5028648;28;20531;-78
2021/12/09 03:18:58;;;;;;;7.63;4.43;;;4.60;99.90;;;;;;5040167;28;20191;-78
2021/12/09 03:21:29;;;;;;;7.53;4.20;;;4.60;99.90;;;;;;5041695;28;20195;-78
2021/12/09 03:23:57;;;;;;;6.70;4.20;;;4.50;99.90;;;;;;5030806;28;20209;-78
2021/12/09 03:26:29;;;;;;;10.90;4.27;;;4.50;99.90;;;;;;5037025;28;20203;-78
2021/12/09 03:29:00;;;;;;;9.30;4.77;;;4.50;99.90;;;;;;5024983;28;20191;-78
2021/12/09 03:31:28;;;;;;;7.43;4.60;;;4.50;99.90;;;;;;5037328;28;20543;-78
2021/12/09 03:33:56;;;;;;;8.20;4.17;;;4.50;99.90;;;;;;5028996;28;20212;-78
2021/12/09 03:36:26;;;;;;;7.03;3.83;;;4.50;99.90;;;;;;5046571;28;20198;-78
2021/12/09 03:38:53;;;;;;;7.70;4.00;;;4.50;99.90;;;;;;5027227;28;20203;-78
2021/12/09 03:41:21;;;;;;;6.47;4.30;;;4.50;99.90;;;;;;5027803;28;20200;-78
2021/12/09 03:43:49;;;;;;;6.70;4.23;;;4.40;99.90;;;;;;5031043;28;20206;-78
2021/12/09 03:46:18;;;;;;;6.97;4.43;;;4.40;99.90;;;;;;5029179;28;20206;-78
2021/12/09 03:48:45;;;;;;;7.23;4.17;;;4.30;99.90;;;;;;5038482;28;20575;-78
2021/12/09 03:51:15;;;;;;;9.23;3.63;;;4.30;99.90;;;;;;5022980;28;20235;-78
2021/12/09 03:53:43;;;;;;;6.20;4.10;;;4.30;99.90;;;;;;5028178;28;20197;-78
2021/12/09 03:56:10;;;;;;;7.33;4.43;;;4.50;99.90;;;;;;5032471;28;20198;-78
2021/12/09 03:58:38;;;;;;;9.60;4.37;;;4.40;99.90;;;;;;5030716;28;20228;-78
2021/12/09 04:01:05;;;;;;;9.40;4.83;;;4.40;99.90;;;;;;5047763;28;20203;-78
2021/12/09 04:03:34;;;;;;;7.73;5.07;;;4.20;99.90;;;;;;5031239;28;20203;-78
2021/12/09 04:06:01;;;;;;;9.57;4.70;;;4.20;99.90;;;;;;5029658;28;20187;-78
2021/12/09 04:08:29;;;;;;;7.43;4.43;;;4.20;99.90;;;;;;5031165;28;20604;-78
2021/12/09 04:10:57;;;;;;;7.63;4.37;;;4.20;99.90;;;;;;5028919;28;20199;-78
2021/12/09 04:13:24;;;;;;;9.93;4.13;;;4.30;99.90;;;;;;5046390;28;20195;-78
2021/12/09 04:15:52;;;;;;;9.97;5.00;;;4.20;99.90;;;;;;5028350;28;20204;-77
2021/12/09 04:18:20;;;;;;;11.40;4.40;;;4.10;99.90;;;;;;5029835;28;20217;-78
2021/12/09 04:20:50;;;;;;;8.10;4.20;;;4.20;99.90;;;;;;5027655;28;20195;-78
2021/12/09 04:23:17;;;;;;;8.13;4.40;;;4.10;99.90;;;;;;5024817;28;20211;-77
2021/12/09 04:25:45;;;;;;;9.57;4.33;;;4.10;99.90;;;;;;5025539;28;20219;-78
2021/12/09 04:28:13;;;;;;;7.23;5.17;;;4.10;99.90;;;;;;5042296;28;20230;-78
2021/12/09 04:30:41;;;;;;;8.27;4.73;;;4.00;99.90;;;;;;5051543;28;20213;-78
2021/12/09 04:33:08;;;;;;;10.50;4.83;;;4.10;99.90;;;;;;5031921;28;20592;-78
2021/12/09 04:35:35;;;;;;;8.47;4.90;;;4.10;99.90;;;;;;5029186;28;20577;-78
2021/12/09 04:38:04;;;;;;;7.90;4.50;;;4.00;99.90;;;;;;5054309;28;20233;-78
2021/12/09 04:40:32;;;;;;;7.27;3.90;;;4.00;99.90;;;;;;5032289;28;20199;-78
2021/12/09 04:43:01;;;;;;;7.30;4.47;;;4.10;99.90;;;;;;5029792;28;20199;-78
2021/12/09 04:45:30;;;;;;;8.77;4.57;;;4.20;99.90;;;;;;5023372;28;20203;-78
2021/12/09 04:47:57;;;;;;;10.07;4.63;;;4.10;99.90;;;;;;5043959;28;20225;-78
2021/12/09 04:50:25;;;;;;;7.33;4.63;;;4.10;99.90;;;;;;5027709;28;20202;-78
2021/12/09 04:52:53;;;;;;;8.17;4.53;;;4.20;99.90;;;;;;5020336;28;20206;-78
2021/12/09 04:55:21;;;;;;;7.57;4.67;;;4.10;99.90;;;;;;5023577;28;20215;-78
2021/12/09 04:57:49;;;;;;;10.10;4.20;;;4.10;99.90;;;;;;5025235;28;20226;-78
2021/12/09 05:00:19;;;;;;;7.60;4.20;;;4.10;99.90;;;;;;5046325;28;20205;-78
2021/12/09 05:03:03;;;;;;;10.60;4.10;;;4.10;99.90;;;;;;5032231;28;20213;-78
2021/12/09 05:05:35;;;;;;;9.07;3.73;;;4.10;99.90;;;;;;5024903;28;20190;-78
2021/12/09 05:08:05;;;;;;;7.80;4.27;;;4.00;99.90;;;;;;5038421;28;20244;-79
2021/12/09 05:10:47;;;;;;;7.87;4.30;;;4.00;99.90;;;;;;5028805;28;20209;-78
2021/12/09 05:13:15;;;;;;;8.53;4.03;;;4.00;99.90;;;;;;5028839;28;20210;-78
2021/12/09 05:15:42;;;;;;;8.80;4.30;;;4.00;99.90;;;;;;5025680;28;20206;-78
2021/12/09 05:18:10;;;;;;;7.90;4.30;;;4.10;99.90;;;;;;5021663;28;20230;-79
2021/12/09 05:20:37;;;;;;;10.40;4.60;;;4.10;99.90;;;;;;5023698;28;20198;-78
2021/12/09 05:23:05;;;;;;;7.03;3.93;;;4.10;99.90;;;;;;5033519;28;20218;-78
2021/12/09 05:25:34;;;;;;;8.00;3.87;;;4.10;99.90;;;;;;5024768;28;20218;-78
2021/12/09 05:28:01;;;;;;;6.63;4.00;;;4.20;99.90;;;;;;5034771;28;20226;-78
2021/12/09 05:30:39;;;;;;;7.67;3.97;;;4.20;99.90;;;;;;5021909;28;20219;-78
2021/12/09 05:33:06;;;;;;;6.70;3.97;;;4.10;99.90;;;;;;5027530;28;20210;-78
2021/12/09 05:35:34;;;;;;;8.07;4.37;;;3.90;99.90;;;;;;5032372;28;20707;-78
2021/12/09 05:38:02;;;;;;;5.97;4.10;;;4.00;99.90;;;;;;5034302;28;20245;-78
2021/12/09 05:40:29;;;;;;;10.20;5.07;;;4.00;99.90;;;;;;5027366;28;20217;-78
2021/12/09 05:42:58;;;;;;;6.60;4.33;;;4.00;99.90;;;;;;5039571;28;20204;-78
2021/12/09 05:45:26;;;;;;;8.50;4.37;;;4.00;99.90;;;;;;5024844;28;20195;-78
2021/12/09 05:47:54;;;;;;;6.53;4.07;;;4.00;99.90;;;;;;5030077;28;20219;-78
2021/12/09 05:50:22;;;;;;;11.50;4.43;;;4.00;99.90;;;;;;5030830;28;20206;-78
2021/12/09 05:52:49;;;;;;;5.63;4.47;;;4.10;99.90;;;;;;5035475;28;20202;-78
2021/12/09 05:55:17;;;;;;;12.73;4.93;;;4.00;99.90;;;;;;5030328;28;20581;-78
2021/12/09 05:57:44;;;;;;;10.13;4.63;;;4.00;99.90;;;;;;5028764;28;20234;-78
2021/12/09 06:00:15;;;;;;;9.23;4.40;;;4.10;99.90;;;;;;5031639;28;20207;-78
2021/12/09 06:02:42;;;;;;;8.27;4.43;;;4.10;99.90;;;;;;5040443;28;20206;-78
2021/12/09 06:05:10;;;;;;;7.13;4.20;;;4.10;99.90;;;;;;5025346;28;20190;-78
2021/12/09 06:07:37;;;;;;;8.80;4.10;;;4.10;99.90;;;;;;5023936;28;20226;-78
2021/12/09 06:10:06;;;;;;;11.23;5.40;;;4.00;99.90;;;;;;5033965;28;20641;-78
2021/12/09 06:12:35;;;;;;;9.00;4.43;;;4.00;99.90;;;;;;5033259;28;20563;-78
2021/12/09 06:15:03;;;;;;;6.70;3.70;;;4.00;99.90;;;;;;5020556;28;20212;-78
2021/12/09 06:17:31;;;;;;;7.10;4.20;;;4.00;99.90;;;;;;5020848;28;20215;-78
2021/12/09 06:19:59;;;;;;;9.57;4.53;;;4.00;99.90;;;;;;5033362;28;20198;-78
2021/12/09 06:22:26;;;;;;;8.43;4.50;;;4.00;99.90;;;;;;5033212;28;20671;-78
2021/12/09 06:24:54;;;;;;;8.63;4.47;;;4.00;99.90;;;;;;5033985;28;20217;-78
2021/12/09 06:27:21;;;;;;;9.13;4.63;;;4.00;99.90;;;;;;5026240;28;20214;-78
2021/12/09 06:30:06;;;;;;;10.17;4.70;;;4.00;99.90;;;;;;5023092;28;20206;-78
2021/12/09 06:32:55;;;;;;;7.33;4.03;;;3.90;99.90;;;;;;5030923;28;20206;-78
2021/12/09 06:35:26;;;;;;;11.80;4.73;;;4.00;99.90;;;;;;5042983;28;20219;-78
2021/12/09 06:37:54;;;;;;;8.67;5.10;;;4.00;99.90;;;;;;5025803;28;20229;-78
2021/12/09 06:40:25;;;;;;;10.43;5.60;;;4.00;99.90;;;;;;5032830;28;20214;-78
2021/12/09 06:42:54;;;;;;;7.33;4.30;;;4.00;99.90;;;;;;5027239;28;20206;-78
2021/12/09 06:45:23;;;;;;;8.20;4.20;;;4.00;99.90;;;;;;5042104;28;20202;-78
2021/12/09 06:47:53;;;;;;;11.27;4.37;;;4.00;99.90;;;;;;5023164;28;20218;-78
2021/12/09 06:50:23;;;;;;;8.70;4.03;;;3.90;99.90;;;;;;5026332;28;20218;-78
2021/12/09 06:52:51;;;;;;;8.93;4.70;;;3.90;99.90;;;;;;5040789;28;20202;-78
2021/12/09 06:55:20;;;;;;;8.00;3.97;;;3.90;99.90;;;;;;5029892;28;20215;-77
2021/12/09 06:57:49;;;;;;;8.63;4.37;;;3.90;99.90;;;;;;5059386;23;20247;-75
2021/12/09 07:00:19;;;;;;;8.10;4.33;;;3.90;99.90;;;;;;5046816;28;20686;-75
2021/12/09 07:02:46;;;;;;;9.93;4.40;;;3.90;99.90;;;;;;5023990;28;20207;-76
2021/12/09 07:05:33;;;;;;;9.07;4.40;;;3.90;99.90;;;;;;5023895;28;20191;-76
2021/12/09 07:08:00;;;;;;;5.37;3.70;;;4.00;99.90;;;;;;5011373;28;20226;-76
2021/12/09 07:10:27;;;;;;;9.73;4.53;;;4.00;99.90;;;;;;5022715;28;20206;-76
2021/12/09 07:12:55;;;;;;;7.90;3.83;;;4.00;99.90;;;;;;5023335;28;20205;-76
2021/12/09 07:15:22;;;;;;;6.37;3.83;;;4.00;99.90;;;;;;5010027;28;20219;-76
2021/12/09 07:17:50;;;;;;;8.27;4.40;;;3.90;99.90;;;;;;5018662;28;20220;-76
2021/12/09 07:20:22;;;;;;;8.53;3.87;;;3.90;99.90;;;;;;5013585;28;20199;-76
2021/12/09 07:22:52;;;;;;;7.53;3.70;;;3.90;99.90;;;;;;5027948;28;20192;-76
2021/12/09 07:25:22;;;;;;;8.37;4.57;;;3.90;99.90;;;;;;5028359;28;20211;-76
2021/12/09 07:27:50;;;;;;;8.97;4.53;;;4.00;99.90;;;;;;4994222;28;20216;-76
2021/12/09 07:30:20;;;;;;;5.60;3.90;;;4.00;99.90;;;;;;5008910;28;20201;-76
2021/12/09 07:32:48;;;;;;;8.80;4.97;;;4.00;99.90;;;;;;5028017;28;20584;-76
2021/12/09 07:35:17;;;;;;;8.83;4.20;;;4.00;99.90;;;;;;5012764;28;20200;-76
2021/12/09 07:37:45;;;;;;;5.23;4.20;;;3.90;99.90;;;;;;5009968;28;20219;-76
2021/12/09 07:40:16;;;;;;;7.87;3.40;;;3.90;99.90;;;;;;4993690;28;20197;-76
2021/12/09 07:42:43;;;;;;;10.50;4.40;;;3.90;99.90;;;;;;5011086;28;20203;-76
2021/12/09 07:45:13;;;;;;;6.80;4.00;;;3.90;99.90;;;;;;5010805;28;20200;-75
2021/12/09 07:47:42;;;;;;;10.90;4.73;;;3.90;99.90;;;;;;5025559;28;20216;-75
2021/12/09 07:50:14;;;;;;;9.13;4.20;;;3.90;99.90;;;;;;5025385;28;20554;-75
2021/12/09 07:52:42;;;;;;;13.63;4.77;;;3.90;99.90;;;;;;5023023;28;20206;-75
2021/12/09 07:55:11;;;;;;;8.20;3.53;;;3.90;99.90;;;;;;5011555;28;20214;-76
2021/12/09 07:57:40;;;;;;;8.83;4.20;;;4.00;99.90;;;;;;5025314;28;20220;-76
2021/12/09 08:00:11;;;;;;;7.63;3.97;;;4.00;99.90;;;;;;5010164;28;20207;-75
2021/12/09 08:02:39;;;;;;;7.17;3.80;;;4.10;99.90;;;;;;5012269;28;20180;-75
2021/12/09 08:05:08;;;;;;;7.47;4.30;;;4.00;99.90;;;;;;5003906;28;20207;-75
2021/12/09 08:07:35;;;;;;;11.70;4.33;;;4.00;99.90;;;;;;5016590;28;20208;-75
2021/12/09 08:10:04;;;;;;;10.80;4.50;;;3.90;99.90;;;;;;5007568;28;20209;-76
2021/12/09 08:12:31;;;;;;;10.63;4.00;;;4.00;99.90;;;;;;5027182;28;20560;-76
2021/12/09 08:15:00;;;;;;;8.63;4.73;;;4.00;99.90;;;;;;5007303;28;20206;-76
2021/12/09 08:17:57;;;;;;;15.23;4.90;;;4.10;99.90;;;;;;5019765;28;20228;-76
2021/12/09 08:20:25;;;;;;;10.33;5.00;;;4.10;99.90;;;;;;5007661;28;20673;-75
2021/12/09 08:22:58;;;;;;;10.70;4.83;;;4.10;99.90;;;;;;5009869;28;20203;-75
2021/12/09 08:25:26;;;;;;;6.30;3.80;;;4.20;99.90;;;;;;5010421;28;20615;-76
2021/12/09 08:27:53;;;;;;;10.73;4.10;;;4.10;99.90;;;;;;5008306;28;20230;-75
2021/12/09 08:30:26;;;;;;;9.80;4.20;;;4.20;99.90;;;;;;5017150;28;20200;-76
2021/12/09 08:32:54;;;;;;;9.60;4.67;;;4.20;99.90;;;;;;5010195;28;20203;-76
2021/12/09 08:35:22;;;;;;;7.77;3.80;;;4.30;99.90;;;;;;5011506;28;20203;-76
2021/12/09 08:37:51;;;;;;;5.77;3.47;;;4.30;99.90;;;;;;5028271;28;20227;-76
2021/12/09 08:40:20;;;;;;;8.70;4.33;;;4.40;99.90;;;;;;4992247;28;20204;-76
2021/12/09 08:42:49;;;;;;;6.20;4.00;;;4.30;99.90;;;;;;4993077;28;20192;-76
2021/12/09 08:45:44;;;;;;;6.70;4.00;;;4.30;99.90;;;;;;5007890;28;20215;-76
2021/12/09 08:48:21;;;;;;;6.10;4.17;;;4.40;99.90;;;;;;5023189;28;20219;-76
2021/12/09 08:50:48;;;;;;;8.90;4.50;;;4.40;99.90;;;;;;5004989;28;20202;-76
2021/12/09 08:53:17;;;;;;;10.37;3.63;;;4.50;99.90;;;;;;5025649;28;20226;-76
2021/12/09 08:55:45;;;;;;;8.70;3.93;;;4.50;99.90;;;;;;5024614;28;20205;-76
2021/12/09 08:58:14;;;;;;;12.03;4.30;;;4.60;99.90;;;;;;5023826;28;20216;-76
2021/12/09 09:00:44;;;;;;;9.50;4.43;;;4.50;99.90;;;;;;5004231;28;20756;-76
2021/12/09 09:03:12;;;;;;;10.27;3.80;;;4.50;99.90;;;;;;5017573;28;20208;-74
2021/12/09 09:05:40;;;;;;;9.87;4.13;;;4.60;99.90;;;;;;5019618;28;20211;-75
2021/12/09 09:08:07;;;;;;;9.27;4.40;;;4.60;99.90;;;;;;5009861;28;20219;-74
2021/12/09 09:10:37;;;;;;;7.23;4.43;;;4.60;99.90;;;;;;5010992;28;20601;-74
2021/12/09 09:13:05;;;;;;;5.87;3.83;;;4.60;99.90;;;;;;5010356;28;20672;-74
2021/12/09 09:15:35;;;;;;;9.80;3.97;;;4.70;99.90;;;;;;5004545;28;20196;-76
2021/12/09 09:18:05;;;;;;;8.77;3.87;;;4.70;99.90;;;;;;5009430;28;20228;-76
2021/12/09 09:20:34;;;;;;;7.53;4.37;;;4.80;99.90;;;;;;4998180;28;20215;-75
2021/12/09 09:23:02;;;;;;;8.13;3.90;;;4.70;99.90;;;;;;5004438;28;20589;-75
2021/12/09 09:25:39;;;;;;;7.00;3.47;;;4.80;99.90;;;;;;4998947;28;20214;-76
2021/12/09 09:28:08;;;;;;;7.80;3.97;;;4.90;99.90;;;;;;5002266;28;20709;-75
2021/12/09 09:30:40;;;;;;;6.73;3.80;;;4.90;99.90;;;;;;4999422;28;20207;-76
2021/12/09 09:33:11;;;;;;;7.33;3.47;;;5.00;99.90;;;;;;5013916;28;20214;-76
2021/12/09 09:35:40;;;;;;;9.93;4.00;;;5.00;99.90;;;;;;5010191;28;20201;-76
2021/12/09 09:38:08;;;;;;;8.60;4.20;;;5.00;99.90;;;;;;5009934;28;20228;-78
2021/12/09 09:40:47;;;;;;;8.00;3.90;;;5.00;99.90;;;;;;5027526;28;20215;-77
2021/12/09 09:43:55;;;;;;;5.73;3.53;;;5.10;99.90;;;;;;5014988;28;20200;-77
2021/12/09 09:46:26;;;;;;;7.93;3.93;;;5.20;99.90;;;;;;5011107;28;20224;-77
2021/12/09 09:48:58;;;;;;;7.10;3.93;;;5.10;99.90;;;;;;5021008;28;20562;-76
2021/12/09 09:51:27;;;;;;;6.40;3.70;;;5.30;99.90;;;;;;5003110;28;20207;-76
2021/12/09 09:53:55;;;;;;;8.33;3.90;;;5.20;99.90;;;;;;5008246;28;20209;-76
2021/12/09 09:56:24;;;;;;;9.37;4.60;;;5.20;99.90;;;;;;5010572;28;20229;-76
2021/12/09 09:58:54;;;;;;;9.10;4.53;;;5.10;99.90;;;;;;5012646;28;20200;-76
2021/12/09 10:01:23;;;;;;;7.47;4.70;;;5.10;99.90;;;;;;5013983;28;20204;-76
2021/12/09 10:03:57;;;;;;;6.70;4.03;;;5.10;99.90;;;;;;5024567;28;20213;-76
2021/12/09 10:06:26;;;;;;;7.87;4.23;;;5.10;99.90;;;;;;5011353;28;20226;-76
2021/12/09 10:08:54;;;;;;;8.17;4.27;;;5.10;99.90;;;;;;5032171;28;20194;-76
2021/12/09 10:11:21;;;;;;;10.83;4.80;;;5.20;99.90;;;;;;5021590;28;20205;-76
2021/12/09 10:13:49;;;;;;;7.17;4.20;;;5.30;99.90;;;;;;5008580;28;20206;-76
2021/12/09 10:16:20;;;;;;;8.20;3.87;;;5.20;99.90;;;;;;4999379;28;20249;-76
2021/12/09 10:18:51;;;;;;;5.87;4.17;;;5.20;99.90;;;;;;5011354;28;20220;-76
2021/12/09 10:21:23;;;;;;;8.03;3.93;;;5.20;99.90;;;;;;5023325;28;20203;-76
2021/12/09 10:23:59;;;;;;;8.40;4.60;;;5.20;99.90;;;;;;5025933;28;20195;-76
2021/12/09 10:26:29;;;;;;;8.30;4.17;;;5.10;99.90;;;;;;5027802;28;20211;-76
2021/12/09 10:29:08;;;;;;;7.07;4.13;;;5.10;99.90;;;;;;5036498;28;20637;-76
2021/12/09 10:31:40;;;;;;;9.40;4.83;;;5.10;99.90;;;;;;5023181;28;20221;-76
2021/12/09 10:34:15;;;;;;;10.80;4.30;;;5.10;99.90;;;;;;5017175;28;20229;-77
2021/12/09 10:37:01;;;;;;;10.53;4.23;;;5.10;99.90;;;;;;5015450;28;20235;-76
2021/12/09 10:39:37;;;;;;;7.93;3.90;;;5.10;99.90;;;;;;5028692;28;20239;-76
2021/12/09 10:42:08;;;;;;;6.17;3.80;;;5.10;99.90;;;;;;5013449;28;20668;-76
2021/12/09 10:44:40;;;;;;;9.33;4.33;;;5.10;99.90;;;;;;5014755;28;20192;-76
2021/12/09 10:47:13;;;;;;;5.87;4.00;;;5.10;99.90;;;;;;5010307;28;20243;-76
2021/12/09 10:49:49;;;;;;;7.47;4.03;;;5.10;99.90;;;;;;5012294;28;20211;-75
2021/12/09 10:52:28;;;;;;;9.83;4.87;;;5.10;99.90;;;;;;5025886;28;20203;-76
2021/12/09 10:55:26;;;;;;;7.77;4.07;;;5.00;99.90;;;;;;5006752;28;20209;-76
2021/12/09 10:58:03;;;;;;;8.90;4.67;;;5.00;99.90;;;;;;5003422;28;20229;-76
2021/12/09 11:00:41;;;;;;;8.23;4.47;;;5.00;99.90;;;;;;5004576;28;20205;-76
2021/12/09 11:03:16;;;;;;;10.70;4.83;;;5.00;99.90;;;;;;5011389;28;20198;-76
2021/12/09 11:05:49;;;;;;;7.03;4.17;;;5.00;99.90;;;;;;5003881;28;20220;-76
2021/12/09 11:08:26;;;;;;;9.80;4.67;;;5.10;99.90;;;;;;5007776;28;20199;-76
2021/12/09 11:11:12;;;;;;;6.00;4.23;;;5.10;99.90;;;;;;5012481;28;20199;-77
2021/12/09 11:13:45;;;;;;;7.23;4.23;;;5.10;99.90;;;;;;5009667;28;20211;-76
2021/12/09 11:16:22;;;;;;;8.53;4.30;;;5.10;99.90;;;;;;5009833;28;20578;-76
2021/12/09 11:19:07;;;;;;;8.33;4.43;;;5.30;99.90;;;;;;5025829;28;20250;-77
2021/12/09 11:21:39;;;;;;;8.33;4.87;;;5.50;99.90;;;;;;5026138;28;20212;-77
2021/12/09 11:24:22;;;;;;;5.63;3.90;;;5.80;99.90;;;;;;5018955;28;20662;-77
2021/12/09 11:26:55;;;;;;;9.20;4.33;;;6.50;99.90;;;;;;5013467;28;20224;-77
2021/12/09 11:29:27;;;;;;;9.47;4.60;;;5.90;99.90;;;;;;5009541;28;20200;-77
2021/12/09 11:32:05;;;;;;;7.93;4.30;;;6.60;99.90;;;;;;5010492;28;20206;-76
2021/12/09 11:34:42;;;;;;;8.77;4.30;;;5.90;99.90;;;;;;5002887;28;20197;-76
2021/12/09 11:37:41;;;;;;;7.40;4.33;;;5.60;99.90;;;;;;5002454;28;21152;-76
2021/12/09 11:40:32;;;;;;;7.53;4.53;;;5.50;99.90;;;;;;4993187;28;20554;-76
2021/12/09 11:43:02;;;;;;;7.07;4.37;;;5.40;99.90;;;;;;4998826;28;20210;-76
2021/12/09 11:45:32;;;;;;;7.23;4.20;;;5.40;99.90;;;;;;5025372;28;20413;-75
2021/12/09 11:48:01;;;;;;;5.93;4.60;;;5.40;99.90;;;;;;5010795;28;20584;-76
2021/12/09 11:50:31;;;;;;;7.23;4.80;;;5.40;99.90;;;;;;5021412;28;20206;-76
2021/12/09 11:53:06;;;;;;;6.70;4.70;;;5.40;99.90;;;;;;5000807;28;20205;-75
2021/12/09 11:55:42;;;;;;;7.90;4.57;;;5.40;99.90;;;;;;5006060;28;20212;-76
2021/12/09 11:58:22;;;;;;;8.23;4.83;;;5.40;99.90;;;;;;5015536;28;20223;-76
2021/12/09 12:07:06;;;;;;;8.83;4.83;;;5.40;99.90;;;;;;5011462;28;20221;-76
2021/12/09 12:12:45;;;;;;;11.77;5.37;;;5.40;99.90;;;;;;5010182;28;20198;-75
2021/12/09 12:15:48;;;;;;;10.33;4.40;;;5.50;99.90;;;;;;5006082;28;20201;-75
2021/12/09 12:18:46;;;;;;;8.43;4.90;;;5.50;99.90;;;;;;5010086;28;20201;-74
2021/12/09 12:21:54;;;;;;;7.73;4.30;;;5.60;99.90;;;;;;5027318;28;20194;-74
2021/12/09 12:24:57;;;;;;;10.90;4.47;;;5.50;99.90;;;;;;5009277;28;20228;-74
2021/12/09 12:28:00;;;;;;;9.60;4.70;;;5.50;99.90;;;;;;5010281;28;20208;-74
2021/12/09 12:31:02;;;;;;;7.97;4.63;;;5.50;99.90;;;;;;5027101;28;20694;-74
2021/12/09 12:34:22;;;;;;;8.60;5.30;;;5.40;99.90;;;;;;5009230;28;20201;-75
2021/12/09 12:40:05;;;;;;;10.30;5.33;;;5.40;99.90;;;;;;4990689;28;20685;-74
2021/12/09 12:42:50;;;;;;;10.03;5.13;;;5.40;99.90;;;;;;4991486;28;20202;-75
2021/12/09 12:49:12;;;;;;;8.73;5.20;;;5.40;99.90;;;;;;5021975;28;20602;-75
2021/12/09 12:51:56;;;;;;;9.97;4.90;;;5.40;99.90;;;;;;4990323;28;20215;-74
2021/12/09 12:54:38;;;;;;;8.30;5.03;;;5.30;99.90;;;;;;5011225;28;20254;-74
2021/12/09 12:57:14;;;;;;;8.17;4.47;;;5.30;99.90;;;;;;5011841;28;20234;-74
2021/12/09 12:59:43;;;;;;;9.90;5.47;;;5.20;99.90;;;;;;5012190;28;20203;-74
2021/12/09 13:05:26;;;;;;;8.83;5.60;;;5.20;99.90;;;;;;5028235;28;20196;-74
2021/12/09 13:10:51;;;;;;;12.43;5.13;;;5.20;99.90;;;;;;5004443;28;20554;-74
2021/12/09 13:13:29;;;;;;;8.57;4.60;;;5.30;99.90;;;;;;5027608;28;20207;-74
2021/12/09 13:16:13;;;;;;;8.70;4.73;;;5.30;99.90;;;;;;5008457;28;20197;-74
2021/12/09 13:19:01;;;;;;;9.57;5.10;;;5.30;99.90;;;;;;4991962;28;20197;-74
2021/12/09 13:21:43;;;;;;;9.67;5.00;;;5.30;99.90;;;;;;4991906;28;20205;-74
2021/12/09 13:24:35;;;;;;;10.20;4.93;;;5.40;99.90;;;;;;4991752;28;20200;-74
2021/12/09 13:27:27;;;;;;;8.33;4.73;;;5.40;99.90;;;;;;4991970;28;20231;-74
2021/12/09 13:30:13;;;;;;;8.77;4.73;;;5.30;99.90;;;;;;5004825;28;20220;-74
2021/12/09 13:33:12;;;;;;;7.40;4.97;;;5.30;99.90;;;;;;5011041;28;20211;-74
2021/12/09 13:36:01;;;;;;;12.20;5.17;;;5.40;99.90;;;;;;5012788;28;20209;-74
2021/12/09 13:47:08;;;;;;;6.87;4.47;;;5.30;99.90;;;;;;5027342;28;20217;-74
2021/12/09 13:49:47;;;;;;;12.30;4.03;;;5.30;99.90;;;;;;5027831;28;20551;-74
2021/12/09 13:55:07;;;;;;;11.40;4.80;;;5.20;99.90;;;;;;5012302;28;20180;-74